Time;durP1;ratioP1;P1;durP2;ratioP2;P2;SDS_P1;SDS_P2;PMS_P1;PMS_P2;Temp;Humidity;BMP_temperature;BMP_pressure;BME280_temperature;BME280_humidity;BME280_pressure;Samples;Min_cycle;Max_cycle;Signal;HPM_P1;HPM_P2
2022/08/21 00:00:27;;;;;;;;;7.67;7.00;;;;;;;;5063254;28;52713;-63
2022/08/21 00:03:01;;;;;;;;;6.33;5.33;;;;;;;;5060617;28;51091;-64
2022/08/21 00:05:26;;;;;;;;;4.00;4.00;;;;;;;;5071872;27;51068;-63
2022/08/21 00:07:52;;;;;;;;;7.33;6.00;;;;;;;;5062584;28;51052;-63
2022/08/21 00:10:18;;;;;;;;;6.00;5.33;;;;;;;;5067017;28;51426;-63
2022/08/21 00:12:43;;;;;;;;;6.33;6.00;;;;;;;;5074149;28;51073;-63
2022/08/21 00:15:10;;;;;;;;;5.33;5.33;;;;;;;;5073751;28;51049;-63
2022/08/21 00:17:35;;;;;;;;;4.00;4.00;;;;;;;;5072787;28;50993;-64
2022/08/21 00:20:02;;;;;;;;;7.00;7.00;;;;;;;;5073350;28;51073;-63
2022/08/21 00:22:27;;;;;;;;;5.00;5.00;;;;;;;;5066186;28;51091;-64
2022/08/21 00:24:52;;;;;;;;;5.00;5.00;;;;;;;;5072496;28;51225;-63
2022/08/21 00:27:17;;;;;;;;;7.67;6.67;;;;;;;;5072020;28;51241;-63
2022/08/21 00:29:42;;;;;;;;;7.00;5.00;;;;;;;;5073952;28;51747;-63
2022/08/21 00:32:07;;;;;;;;;6.00;5.00;;;;;;;;5066056;28;52491;-66
2022/08/21 00:34:33;;;;;;;;;4.00;4.00;;;;;;;;5068630;28;51072;-65
2022/08/21 00:36:58;;;;;;;;;5.00;5.00;;;;;;;;5064030;28;51248;-63
2022/08/21 00:39:23;;;;;;;;;5.00;5.00;;;;;;;;5073459;28;51895;-64
2022/08/21 00:41:49;;;;;;;;;4.67;4.00;;;;;;;;5069441;28;51095;-63
2022/08/21 00:44:15;;;;;;;;;4.00;4.00;;;;;;;;5069970;28;51002;-63
2022/08/21 00:46:41;;;;;;;;;2.33;2.33;;;;;;;;5067122;28;51308;-63
2022/08/21 00:49:07;;;;;;;;;3.00;3.00;;;;;;;;5069511;28;53607;-63
2022/08/21 00:51:55;;;;;;;;;4.00;3.00;;;;;;;;5065716;28;51030;-62
2022/08/21 00:54:24;;;;;;;;;4.33;4.33;;;;;;;;5059237;28;51012;-63
2022/08/21 00:56:51;;;;;;;;;6.00;5.00;;;;;;;;5072058;28;50967;-63
2022/08/21 00:59:18;;;;;;;;;4.67;3.67;;;;;;;;5073347;28;52049;-62
2022/08/21 01:01:43;;;;;;;;;3.00;2.67;;;;;;;;5069383;28;51149;-62
2022/08/21 01:04:08;;;;;;;;;3.67;2.67;;;;;;;;5059833;28;51049;-63
2022/08/21 01:06:34;;;;;;;;;2.67;2.67;;;;;;;;5066859;27;50913;-63
2022/08/21 01:09:00;;;;;;;;;3.67;2.00;;;;;;;;5072028;28;52130;-63
2022/08/21 01:11:25;;;;;;;;;4.00;4.00;;;;;;;;5066583;28;51242;-64
2022/08/21 01:13:51;;;;;;;;;3.67;3.67;;;;;;;;5063917;28;51135;-65
2022/08/21 01:16:18;;;;;;;;;3.33;3.33;;;;;;;;5070751;28;51048;-63
2022/08/21 01:18:44;;;;;;;;;2.00;2.00;;;;;;;;5073354;28;52202;-64
2022/08/21 01:21:09;;;;;;;;;3.33;2.67;;;;;;;;5070968;28;51716;-64
2022/08/21 01:23:36;;;;;;;;;3.33;3.33;;;;;;;;5064015;27;51155;-63
2022/08/21 01:26:02;;;;;;;;;4.67;2.67;;;;;;;;5057872;28;51008;-64
2022/08/21 01:28:30;;;;;;;;;3.33;2.67;;;;;;;;5060833;28;52035;-64
2022/08/21 01:30:55;;;;;;;;;2.33;2.33;;;;;;;;5069506;28;51078;-62
2022/08/21 01:33:22;;;;;;;;;2.00;2.00;;;;;;;;5074462;27;51148;-64
2022/08/21 01:35:47;;;;;;;;;4.33;3.67;;;;;;;;5064109;28;51210;-64
2022/08/21 01:38:12;;;;;;;;;1.67;1.67;;;;;;;;5069618;28;51083;-65
2022/08/21 01:40:38;;;;;;;;;2.67;2.67;;;;;;;;5064047;28;51129;-64
2022/08/21 01:43:03;;;;;;;;;4.00;3.00;;;;;;;;5058601;28;51121;-64
2022/08/21 01:45:28;;;;;;;;;4.00;3.00;;;;;;;;5055924;28;51262;-65
2022/08/21 01:47:53;;;;;;;;;4.33;3.00;;;;;;;;5068148;28;52192;-64
2022/08/21 01:50:20;;;;;;;;;3.00;2.00;;;;;;;;5070901;28;51047;-64
2022/08/21 01:52:45;;;;;;;;;3.67;3.67;;;;;;;;5058659;28;51156;-64
2022/08/21 01:55:11;;;;;;;;;2.33;2.33;;;;;;;;5066751;28;51297;-65
2022/08/21 01:57:36;;;;;;;;;4.33;3.33;;;;;;;;5072276;28;52215;-65
2022/08/21 02:00:04;;;;;;;;;2.33;2.00;;;;;;;;5070593;28;50929;-65
2022/08/21 02:02:30;;;;;;;;;3.67;2.67;;;;;;;;5065266;28;50941;-65
2022/08/21 02:04:55;;;;;;;;;3.67;2.67;;;;;;;;5069702;28;51027;-65
2022/08/21 02:07:21;;;;;;;;;3.33;3.33;;;;;;;;5068878;28;52331;-64
2022/08/21 02:09:46;;;;;;;;;3.00;2.67;;;;;;;;5063256;28;51081;-65
2022/08/21 02:12:12;;;;;;;;;3.67;3.67;;;;;;;;5065323;28;51086;-64
2022/08/21 02:14:37;;;;;;;;;6.67;5.67;;;;;;;;5072472;27;51197;-64
2022/08/21 02:17:02;;;;;;;;;4.33;4.00;;;;;;;;5070479;28;52933;-64
2022/08/21 02:19:27;;;;;;;;;3.33;2.67;;;;;;;;5070313;27;50973;-64
2022/08/21 02:21:53;;;;;;;;;4.67;4.00;;;;;;;;5070523;28;51118;-65
2022/08/21 02:24:18;;;;;;;;;5.00;3.00;;;;;;;;5076149;28;51287;-65
2022/08/21 02:26:43;;;;;;;;;5.67;4.67;;;;;;;;5073486;28;51268;-63
2022/08/21 02:29:08;;;;;;;;;4.67;4.67;;;;;;;;5069387;28;51167;-64
2022/08/21 02:31:34;;;;;;;;;6.00;4.67;;;;;;;;5075959;28;50902;-64
2022/08/21 02:33:59;;;;;;;;;5.00;5.00;;;;;;;;5075720;28;51060;-63
2022/08/21 02:36:24;;;;;;;;;5.00;4.00;;;;;;;;5071507;28;51888;-64
2022/08/21 02:38:50;;;;;;;;;4.33;3.33;;;;;;;;5069542;28;51129;-64
2022/08/21 02:41:17;;;;;;;;;4.00;3.67;;;;;;;;5063757;28;51206;-63
2022/08/21 02:43:42;;;;;;;;;4.00;3.67;;;;;;;;5060987;28;51401;-64
2022/08/21 02:46:08;;;;;;;;;5.00;5.00;;;;;;;;5075842;28;51922;-65
2022/08/21 02:48:34;;;;;;;;;3.00;1.67;;;;;;;;5076642;28;50944;-64
2022/08/21 02:51:00;;;;;;;;;2.67;2.67;;;;;;;;5066366;28;51102;-64
2022/08/21 02:53:26;;;;;;;;;4.00;3.67;;;;;;;;5071702;28;51294;-63
2022/08/21 02:55:53;;;;;;;;;4.33;3.33;;;;;;;;5075289;27;51937;-64
2022/08/21 02:58:23;;;;;;;;;4.67;4.00;;;;;;;;5074544;28;50947;-65
2022/08/21 03:00:49;;;;;;;;;4.00;3.67;;;;;;;;5093245;27;51045;-64
2022/08/21 03:03:14;;;;;;;;;2.67;2.67;;;;;;;;5073459;27;51273;-64
2022/08/21 03:05:40;;;;;;;;;3.33;2.67;;;;;;;;5071893;27;52058;-64
2022/08/21 03:08:10;;;;;;;;;5.00;3.67;;;;;;;;5075265;28;50965;-64
2022/08/21 03:10:36;;;;;;;;;4.67;4.33;;;;;;;;5070923;27;51022;-65
2022/08/21 03:13:03;;;;;;;;;3.67;3.67;;;;;;;;5073193;28;51106;-64
2022/08/21 03:15:29;;;;;;;;;4.67;3.67;;;;;;;;5073454;28;51159;-64
2022/08/21 03:17:54;;;;;;;;;2.67;2.00;;;;;;;;5063231;28;51109;-64
2022/08/21 03:20:21;;;;;;;;;2.67;2.67;;;;;;;;5071937;28;51067;-64
2022/08/21 03:22:47;;;;;;;;;4.00;3.00;;;;;;;;5074501;28;51969;-64
2022/08/21 03:25:12;;;;;;;;;3.00;2.67;;;;;;;;5068299;28;52392;-64
2022/08/21 03:27:37;;;;;;;;;2.67;1.67;;;;;;;;5074940;28;51098;-64
2022/08/21 03:30:04;;;;;;;;;3.00;3.00;;;;;;;;5066646;28;50830;-64
2022/08/21 03:32:31;;;;;;;;;1.67;1.67;;;;;;;;5072132;28;51143;-64
2022/08/21 03:34:56;;;;;;;;;4.00;3.00;;;;;;;;5073648;28;51983;-65
2022/08/21 03:37:21;;;;;;;;;3.00;3.00;;;;;;;;5067916;28;51154;-64
2022/08/21 03:39:47;;;;;;;;;4.67;3.33;;;;;;;;5064168;27;51151;-64
2022/08/21 03:42:12;;;;;;;;;2.67;2.33;;;;;;;;5063451;28;51118;-64
2022/08/21 03:44:39;;;;;;;;;3.00;3.00;;;;;;;;5070353;28;51051;-64
2022/08/21 03:47:04;;;;;;;;;3.33;3.00;;;;;;;;5073711;28;51008;-64
2022/08/21 03:49:29;;;;;;;;;5.00;5.00;;;;;;;;5067498;28;51121;-64
2022/08/21 03:51:55;;;;;;;;;3.00;3.00;;;;;;;;5061611;28;51261;-64
2022/08/21 03:54:20;;;;;;;;;4.00;4.00;;;;;;;;5068654;28;53115;-64
2022/08/21 03:56:45;;;;;;;;;4.67;3.67;;;;;;;;5073246;28;50925;-64
2022/08/21 03:59:11;;;;;;;;;4.33;3.33;;;;;;;;5064337;28;51038;-64
2022/08/21 04:01:36;;;;;;;;;5.00;4.67;;;;;;;;5065009;28;51199;-64
2022/08/21 04:04:02;;;;;;;;;4.33;4.33;;;;;;;;5074185;28;51283;-64
2022/08/21 04:06:27;;;;;;;;;6.67;4.67;;;;;;;;5072133;28;51159;-65
2022/08/21 04:08:53;;;;;;;;;4.00;3.00;;;;;;;;5059618;28;51095;-65
2022/08/21 04:11:18;;;;;;;;;3.67;3.00;;;;;;;;5073622;28;51061;-65
2022/08/21 04:13:44;;;;;;;;;5.00;5.00;;;;;;;;5072084;27;51233;-65
2022/08/21 04:16:10;;;;;;;;;4.67;4.33;;;;;;;;5071983;28;51304;-65
2022/08/21 04:18:35;;;;;;;;;4.33;4.33;;;;;;;;5074256;28;51087;-64
2022/08/21 04:21:01;;;;;;;;;6.33;5.67;;;;;;;;5060217;28;51078;-64
2022/08/21 04:23:27;;;;;;;;;5.33;4.67;;;;;;;;5072888;27;51345;-64
2022/08/21 04:25:53;;;;;;;;;5.67;4.67;;;;;;;;5068058;28;51060;-64
2022/08/21 04:28:18;;;;;;;;;6.00;5.00;;;;;;;;5074286;28;51003;-64
2022/08/21 04:30:44;;;;;;;;;5.67;5.67;;;;;;;;5061235;28;51417;-64
2022/08/21 04:33:09;;;;;;;;;5.00;4.00;;;;;;;;5073453;28;52195;-64
2022/08/21 04:35:35;;;;;;;;;5.00;5.00;;;;;;;;5072859;28;51110;-65
2022/08/21 04:38:00;;;;;;;;;4.67;4.33;;;;;;;;5074277;27;50996;-64
2022/08/21 04:40:26;;;;;;;;;5.00;5.00;;;;;;;;5069622;28;50969;-64
2022/08/21 04:42:52;;;;;;;;;5.00;5.00;;;;;;;;5071471;28;51124;-64
2022/08/21 04:45:28;;;;;;;;;6.00;5.00;;;;;;;;5071213;28;50964;-64
2022/08/21 04:47:54;;;;;;;;;4.00;4.00;;;;;;;;5068929;28;51483;-64
2022/08/21 04:50:22;;;;;;;;;4.00;4.00;;;;;;;;5068933;28;51904;-64
2022/08/21 04:52:47;;;;;;;;;6.67;5.33;;;;;;;;5069641;28;51903;-63
2022/08/21 04:55:12;;;;;;;;;6.33;5.67;;;;;;;;5056206;28;51185;-64
2022/08/21 04:57:39;;;;;;;;;5.33;5.00;;;;;;;;5060878;28;51135;-64
2022/08/21 05:00:05;;;;;;;;;7.00;5.33;;;;;;;;5067965;28;50931;-64
2022/08/21 05:02:32;;;;;;;;;7.67;6.67;;;;;;;;5073554;28;50837;-64
2022/08/21 05:04:58;;;;;;;;;5.67;5.00;;;;;;;;5072887;27;51133;-63
2022/08/21 05:07:26;;;;;;;;;6.00;5.00;;;;;;;;5070703;27;51210;-64
2022/08/21 05:09:51;;;;;;;;;7.00;5.67;;;;;;;;5071405;28;51139;-64
2022/08/21 05:12:16;;;;;;;;;6.00;5.00;;;;;;;;5071680;28;51970;-64
2022/08/21 05:14:42;;;;;;;;;6.00;5.00;;;;;;;;5073441;28;51028;-64
2022/08/21 05:17:07;;;;;;;;;5.33;4.00;;;;;;;;5071674;27;50924;-64
2022/08/21 05:19:32;;;;;;;;;7.33;6.33;;;;;;;;5059472;28;51031;-64
2022/08/21 05:21:58;;;;;;;;;6.33;5.00;;;;;;;;5066503;28;51064;-64
2022/08/21 05:24:23;;;;;;;;;6.00;5.00;;;;;;;;5068282;28;51271;-64
2022/08/21 05:26:48;;;;;;;;;5.00;4.00;;;;;;;;5069599;28;51065;-64
2022/08/21 05:29:14;;;;;;;;;4.67;4.00;;;;;;;;5068718;28;51103;-64
2022/08/21 05:31:40;;;;;;;;;5.00;5.00;;;;;;;;5069744;28;52121;-64
2022/08/21 05:34:06;;;;;;;;;5.67;5.00;;;;;;;;5067802;28;51143;-64
2022/08/21 05:36:31;;;;;;;;;6.67;6.00;;;;;;;;5070488;28;51076;-64
2022/08/21 05:38:56;;;;;;;;;5.00;5.00;;;;;;;;5067770;28;51472;-65
2022/08/21 05:41:22;;;;;;;;;4.67;4.67;;;;;;;;5072364;28;52404;-64
2022/08/21 05:43:47;;;;;;;;;6.00;6.00;;;;;;;;5068409;28;51606;-64
2022/08/21 05:46:12;;;;;;;;;4.00;3.67;;;;;;;;5071201;28;51255;-65
2022/08/21 05:48:37;;;;;;;;;5.00;4.00;;;;;;;;5064106;28;51018;-64
2022/08/21 05:51:06;;;;;;;;;4.33;4.00;;;;;;;;5071663;28;52123;-64
2022/08/21 05:53:31;;;;;;;;;5.33;4.33;;;;;;;;5063511;28;51202;-64
2022/08/21 05:55:57;;;;;;;;;3.67;3.67;;;;;;;;5060668;28;51013;-64
2022/08/21 05:58:25;;;;;;;;;6.00;5.33;;;;;;;;5064008;28;51130;-64
2022/08/21 06:00:51;;;;;;;;;6.00;4.33;;;;;;;;5070316;27;53064;-64
2022/08/21 06:03:18;;;;;;;;;4.33;3.67;;;;;;;;5058207;27;51270;-60
2022/08/21 06:05:45;;;;;;;;;4.67;4.67;;;;;;;;5064559;27;50994;-60
2022/08/21 06:08:10;;;;;;;;;5.00;4.00;;;;;;;;5070822;27;51035;-60
2022/08/21 06:10:35;;;;;;;;;4.00;3.00;;;;;;;;5065259;28;51884;-60
2022/08/21 06:13:00;;;;;;;;;3.00;3.00;;;;;;;;5062597;28;51050;-61
2022/08/21 06:15:26;;;;;;;;;4.00;4.00;;;;;;;;5070977;28;51311;-61
2022/08/21 06:17:52;;;;;;;;;3.00;3.00;;;;;;;;5064791;27;51105;-61
2022/08/21 06:20:17;;;;;;;;;4.67;4.00;;;;;;;;5071642;28;51134;-61
2022/08/21 06:22:45;;;;;;;;;3.00;3.00;;;;;;;;5063274;28;51172;-61
2022/08/21 06:25:11;;;;;;;;;4.00;4.00;;;;;;;;5073192;27;51136;-61
2022/08/21 06:27:39;;;;;;;;;4.00;3.00;;;;;;;;5068585;28;51262;-62
2022/08/21 06:30:05;;;;;;;;;5.00;4.33;;;;;;;;5070435;28;52010;-61
2022/08/21 06:32:30;;;;;;;;;4.00;3.67;;;;;;;;5072223;28;51192;-61
2022/08/21 06:34:55;;;;;;;;;4.00;4.00;;;;;;;;5072352;28;51055;-61
2022/08/21 06:37:21;;;;;;;;;2.67;2.00;;;;;;;;5069371;28;51363;-61
2022/08/21 06:39:47;;;;;;;;;2.67;2.33;;;;;;;;5069649;28;53011;-61
2022/08/21 06:42:13;;;;;;;;;3.67;3.67;;;;;;;;5069627;27;51009;-61
2022/08/21 06:44:38;;;;;;;;;5.00;5.00;;;;;;;;5072635;28;51057;-61
2022/08/21 06:47:03;;;;;;;;;7.00;5.33;;;;;;;;5072064;28;51123;-61
2022/08/21 06:49:28;;;;;;;;;4.33;4.00;;;;;;;;5072105;28;51193;-61
2022/08/21 06:51:54;;;;;;;;;5.00;4.67;;;;;;;;5070493;28;51017;-63
2022/08/21 06:54:19;;;;;;;;;3.67;3.33;;;;;;;;5073048;27;51117;-61
2022/08/21 06:56:44;;;;;;;;;3.67;3.67;;;;;;;;5058072;28;51052;-61
2022/08/21 06:59:09;;;;;;;;;3.67;3.00;;;;;;;;5071252;27;52099;-61
2022/08/21 07:01:34;;;;;;;;;5.33;3.00;;;;;;;;5067874;28;50870;-62
2022/08/21 07:04:00;;;;;;;;;5.00;4.00;;;;;;;;5061410;28;51064;-61
2022/08/21 07:06:25;;;;;;;;;5.00;4.67;;;;;;;;5072965;28;51387;-62
2022/08/21 07:08:50;;;;;;;;;4.00;4.00;;;;;;;;5073313;28;51847;-61
2022/08/21 07:11:20;;;;;;;;;5.00;4.33;;;;;;;;5064451;27;50915;-61
2022/08/21 07:13:45;;;;;;;;;4.00;4.00;;;;;;;;5074865;28;51059;-60
2022/08/21 07:16:11;;;;;;;;;4.00;3.00;;;;;;;;5073521;27;51114;-61
2022/08/21 07:18:36;;;;;;;;;3.33;2.67;;;;;;;;5073938;27;52145;-60
2022/08/21 07:21:03;;;;;;;;;3.67;3.67;;;;;;;;5066523;28;51190;-60
2022/08/21 07:23:30;;;;;;;;;4.00;3.33;;;;;;;;5074741;28;51007;-60
2022/08/21 07:25:55;;;;;;;;;3.33;3.00;;;;;;;;5074743;28;51161;-61
2022/08/21 07:28:20;;;;;;;;;4.67;4.67;;;;;;;;5072779;28;51064;-60
2022/08/21 07:30:50;;;;;;;;;5.33;5.33;;;;;;;;5069352;28;51454;-61
2022/08/21 07:33:15;;;;;;;;;7.67;7.00;;;;;;;;5083009;27;51066;-60
2022/08/21 07:35:40;;;;;;;;;5.33;5.00;;;;;;;;5066780;28;51366;-61
2022/08/21 07:38:06;;;;;;;;;4.33;4.00;;;;;;;;5063035;28;52406;-61
2022/08/21 07:40:31;;;;;;;;;6.67;5.33;;;;;;;;5062558;28;51142;-60
2022/08/21 07:42:56;;;;;;;;;1.67;1.33;;;;;;;;5074939;28;51010;-60
2022/08/21 07:45:24;;;;;;;;;6.00;5.00;;;;;;;;5074801;28;50993;-60
2022/08/21 07:47:49;;;;;;;;;5.00;5.00;;;;;;;;5071260;28;52346;-61
2022/08/21 07:50:15;;;;;;;;;4.00;4.00;;;;;;;;5069637;27;51125;-60
2022/08/21 07:52:41;;;;;;;;;4.00;4.00;;;;;;;;5067571;28;51124;-61
2022/08/21 07:55:07;;;;;;;;;4.00;3.00;;;;;;;;5074245;28;51097;-61
2022/08/21 07:57:33;;;;;;;;;6.67;5.00;;;;;;;;5069485;28;51938;-61
2022/08/21 07:59:58;;;;;;;;;5.00;5.00;;;;;;;;5065872;27;50982;-61
2022/08/21 08:02:28;;;;;;;;;4.00;4.00;;;;;;;;5071484;28;51047;-61
2022/08/21 08:04:53;;;;;;;;;4.33;4.33;;;;;;;;5073478;27;52137;-60
2022/08/21 08:07:19;;;;;;;;;4.67;4.33;;;;;;;;5070522;28;52030;-61
2022/08/21 08:09:44;;;;;;;;;3.67;3.67;;;;;;;;5072734;28;51063;-60
2022/08/21 08:12:09;;;;;;;;;5.00;5.00;;;;;;;;5072396;28;50873;-61
2022/08/21 08:14:35;;;;;;;;;4.67;4.00;;;;;;;;5072783;28;51274;-61
2022/08/21 08:17:02;;;;;;;;;4.00;4.00;;;;;;;;5068810;28;50999;-61
2022/08/21 08:19:27;;;;;;;;;4.00;3.67;;;;;;;;5061599;28;50965;-61
2022/08/21 08:21:52;;;;;;;;;4.67;4.67;;;;;;;;5069049;27;50980;-61
2022/08/21 08:24:18;;;;;;;;;6.00;5.00;;;;;;;;5074102;28;51298;-61
2022/08/21 08:26:43;;;;;;;;;4.00;4.00;;;;;;;;5069932;28;51781;-61
2022/08/21 08:29:08;;;;;;;;;7.67;6.00;;;;;;;;5061903;27;51188;-61
2022/08/21 08:31:33;;;;;;;;;4.67;4.00;;;;;;;;5066925;28;51393;-61
2022/08/21 08:33:58;;;;;;;;;5.33;5.00;;;;;;;;5065150;27;51010;-61
2022/08/21 08:36:31;;;;;;;;;6.00;5.00;;;;;;;;5060315;28;51982;-60
2022/08/21 08:38:56;;;;;;;;;5.67;5.67;;;;;;;;5070007;27;50987;-61
2022/08/21 08:41:22;;;;;;;;;5.00;4.33;;;;;;;;5072906;28;51108;-60
2022/08/21 08:44:02;;;;;;;;;4.67;4.00;;;;;;;;5073898;28;50830;-61
2022/08/21 08:46:35;;;;;;;;;6.67;6.33;;;;;;;;5069096;28;53997;-61
2022/08/21 08:49:06;;;;;;;;;7.67;6.33;;;;;;;;5071753;28;51027;-60
2022/08/21 08:51:35;;;;;;;;;6.33;5.33;;;;;;;;5066501;28;51034;-61
2022/08/21 08:54:03;;;;;;;;;8.00;6.67;;;;;;;;5068900;27;51107;-61
2022/08/21 08:56:32;;;;;;;;;7.00;6.00;;;;;;;;5071138;28;53443;-61
2022/08/21 08:59:11;;;;;;;;;7.00;6.00;;;;;;;;5073631;28;51203;-62
2022/08/21 09:01:37;;;;;;;;;6.00;6.00;;;;;;;;5071776;28;51094;-61
2022/08/21 09:04:02;;;;;;;;;6.67;6.33;;;;;;;;5073649;28;51096;-62
2022/08/21 09:06:47;;;;;;;;;5.00;5.00;;;;;;;;5073240;28;51977;-61
2022/08/21 09:09:20;;;;;;;;;7.00;5.33;;;;;;;;5069969;27;51104;-61
2022/08/21 09:11:51;;;;;;;;;7.33;6.00;;;;;;;;5072794;28;51152;-62
2022/08/21 09:14:24;;;;;;;;;6.67;6.00;;;;;;;;5068591;28;50792;-62
2022/08/21 09:17:08;;;;;;;;;5.00;5.00;;;;;;;;5070243;27;52309;-61
2022/08/21 09:19:39;;;;;;;;;4.33;4.33;;;;;;;;5072847;28;51071;-62
2022/08/21 09:22:23;;;;;;;;;4.33;3.67;;;;;;;;5073138;27;51010;-62
2022/08/21 09:24:51;;;;;;;;;6.00;6.00;;;;;;;;5064748;28;51198;-62
2022/08/21 09:27:18;;;;;;;;;7.33;6.67;;;;;;;;5060795;27;51133;-61
2022/08/21 09:29:47;;;;;;;;;6.67;6.67;;;;;;;;5071971;27;51079;-62
2022/08/21 09:32:22;;;;;;;;;5.33;4.33;;;;;;;;5070598;27;51132;-61
2022/08/21 09:34:59;;;;;;;;;5.00;5.00;;;;;;;;5070170;28;51067;-61
2022/08/21 09:37:26;;;;;;;;;5.00;4.00;;;;;;;;5066812;28;51826;-62
2022/08/21 09:39:51;;;;;;;;;4.00;4.00;;;;;;;;5067034;28;51130;-63
2022/08/21 09:42:27;;;;;;;;;4.67;4.67;;;;;;;;5072913;28;51220;-61
2022/08/21 09:45:10;;;;;;;;;6.67;6.00;;;;;;;;5069839;27;51387;-62
2022/08/21 09:47:36;;;;;;;;;4.33;4.00;;;;;;;;5071119;27;51142;-62
2022/08/21 09:50:10;;;;;;;;;4.00;4.00;;;;;;;;5066768;28;51034;-62
2022/08/21 09:52:42;;;;;;;;;4.67;4.67;;;;;;;;5067090;28;51120;-62
2022/08/21 09:57:38;;;;;;;;;5.00;4.67;;;;;;;;5068687;28;51003;-62
2022/08/21 09:58:01;;;;;;;;;6.00;5.00;;;;;;;;5071845;28;51795;-61
2022/08/21 10:00:29;;;;;;;;;5.67;5.00;;;;;;;;5070127;27;50930;-61
2022/08/21 10:03:07;;;;;;;;;4.33;3.33;;;;;;;;5072442;27;51045;-61
2022/08/21 10:05:32;;;;;;;;;6.00;4.67;;;;;;;;5072767;27;50891;-62
2022/08/21 10:07:57;;;;;;;;;4.00;4.00;;;;;;;;5071838;28;51079;-62
2022/08/21 10:10:28;;;;;;;;;4.67;4.67;;;;;;;;5071470;28;51146;-62
2022/08/21 10:13:13;;;;;;;;;3.67;3.67;;;;;;;;5072631;27;50902;-61
2022/08/21 10:15:44;;;;;;;;;5.00;4.33;;;;;;;;5064361;27;52199;-61
2022/08/21 10:18:16;;;;;;;;;5.67;5.00;;;;;;;;5066600;27;51104;-62
2022/08/21 10:20:49;;;;;;;;;3.67;2.33;;;;;;;;5056906;28;51067;-62
2022/08/21 10:23:33;;;;;;;;;5.00;5.00;;;;;;;;5069690;28;51267;-62
2022/08/21 10:26:08;;;;;;;;;4.00;4.00;;;;;;;;5066858;28;51108;-61
2022/08/21 10:28:49;;;;;;;;;4.67;4.33;;;;;;;;5069355;28;52204;-61
2022/08/21 10:31:26;;;;;;;;;6.00;6.00;;;;;;;;5069624;27;51187;-61
2022/08/21 10:33:58;;;;;;;;;6.00;6.00;;;;;;;;5062055;27;51146;-62
2022/08/21 10:36:30;;;;;;;;;6.33;5.33;;;;;;;;5071539;28;51096;-61
2022/08/21 10:38:56;;;;;;;;;4.00;4.00;;;;;;;;5069808;27;51129;-61
2022/08/21 10:41:21;;;;;;;;;5.33;5.33;;;;;;;;5070873;28;50963;-61
2022/08/21 10:44:04;;;;;;;;;7.33;6.33;;;;;;;;5075447;28;51141;-61
2022/08/21 10:46:51;;;;;;;;;5.00;5.00;;;;;;;;5075328;28;51001;-61
2022/08/21 10:49:25;;;;;;;;;5.00;5.00;;;;;;;;5072068;27;51436;-61
2022/08/21 10:52:09;;;;;;;;;5.67;5.00;;;;;;;;5060872;28;50967;-61
2022/08/21 10:54:51;;;;;;;;;6.67;6.00;;;;;;;;5065126;28;51132;-62
2022/08/21 10:57:39;;;;;;;;;4.00;3.67;;;;;;;;5068138;28;51361;-60
2022/08/21 11:00:12;;;;;;;;;5.00;5.00;;;;;;;;5062964;28;53119;-61
2022/08/21 11:02:48;;;;;;;;;5.67;4.67;;;;;;;;5065143;28;51118;-62
2022/08/21 11:05:16;;;;;;;;;5.00;5.00;;;;;;;;5059473;28;51210;-61
2022/08/21 11:07:53;;;;;;;;;5.00;5.00;;;;;;;;5057909;27;51036;-61
2022/08/21 11:10:33;;;;;;;;;4.33;4.33;;;;;;;;5063046;28;51251;-62
2022/08/21 11:13:02;;;;;;;;;5.00;4.00;;;;;;;;5073088;28;50851;-61
2022/08/21 11:15:30;;;;;;;;;3.00;3.00;;;;;;;;5073986;28;50937;-62
2022/08/21 11:18:04;;;;;;;;;3.67;2.67;;;;;;;;5074372;27;51257;-62
2022/08/21 11:20:32;;;;;;;;;3.00;3.00;;;;;;;;5072062;28;51497;-62
2022/08/21 11:23:02;;;;;;;;;0.67;0.67;;;;;;;;5073479;27;51121;-61
2022/08/21 11:25:33;;;;;;;;;3.67;3.33;;;;;;;;5074447;27;50991;-61
2022/08/21 11:28:02;;;;;;;;;4.00;3.00;;;;;;;;5062300;28;51027;-60
2022/08/21 11:30:32;;;;;;;;;4.00;4.00;;;;;;;;5073886;28;52638;-61
2022/08/21 11:33:16;;;;;;;;;3.00;2.00;;;;;;;;5074009;28;50884;-61
2022/08/21 11:35:51;;;;;;;;;4.00;3.00;;;;;;;;5073407;27;51016;-61
2022/08/21 11:38:16;;;;;;;;;3.00;3.00;;;;;;;;5074285;28;50921;-60
2022/08/21 11:40:42;;;;;;;;;4.00;4.00;;;;;;;;5067339;27;51046;-62
2022/08/21 11:43:19;;;;;;;;;6.00;4.00;;;;;;;;5073314;28;50997;-62
2022/08/21 11:45:49;;;;;;;;;6.33;5.67;;;;;;;;5071703;28;51171;-61
2022/08/21 11:48:21;;;;;;;;;3.67;3.67;;;;;;;;5072533;27;50891;-62
2022/08/21 11:50:47;;;;;;;;;4.00;4.00;;;;;;;;5072711;28;51075;-60
2022/08/21 11:53:15;;;;;;;;;3.33;3.33;;;;;;;;5072798;28;51048;-62
2022/08/21 11:55:41;;;;;;;;;0.00;0.00;;;;;;;;5072286;28;51012;-62
2022/08/21 11:58:19;;;;;;;;;2.67;2.67;;;;;;;;5072656;27;51205;-62
2022/08/21 12:00:51;;;;;;;;;4.33;4.33;;;;;;;;5072870;28;51196;-61
2022/08/21 12:03:27;;;;;;;;;3.67;2.33;;;;;;;;5073139;27;50926;-60
2022/08/21 12:06:04;;;;;;;;;4.00;4.00;;;;;;;;5071818;28;51020;-60
2022/08/21 12:08:31;;;;;;;;;5.33;4.00;;;;;;;;5074050;27;51166;-61
2022/08/21 12:11:04;;;;;;;;;2.00;2.00;;;;;;;;5073233;28;51640;-60
2022/08/21 12:13:31;;;;;;;;;3.33;3.33;;;;;;;;5072090;27;51089;-60
2022/08/21 12:16:14;;;;;;;;;3.33;2.00;;;;;;;;5066771;28;51046;-61
2022/08/21 12:18:39;;;;;;;;;3.33;3.33;;;;;;;;5072194;28;50910;-60
2022/08/21 12:21:25;;;;;;;;;3.00;3.00;;;;;;;;5071899;28;51258;-62
2022/08/21 12:24:04;;;;;;;;;3.00;3.00;;;;;;;;5070291;28;51026;-60
2022/08/21 12:26:35;;;;;;;;;4.33;4.33;;;;;;;;5067390;27;51167;-63
2022/08/21 12:29:23;;;;;;;;;3.00;3.00;;;;;;;;5070328;28;51389;-63
2022/08/21 12:31:57;;;;;;;;;3.00;2.67;;;;;;;;5070722;27;51776;-62
2022/08/21 12:34:24;;;;;;;;;1.33;1.00;;;;;;;;5072311;27;51047;-63
2022/08/21 12:36:53;;;;;;;;;2.00;2.00;;;;;;;;5071815;28;50982;-64
2022/08/21 12:39:23;;;;;;;;;3.00;2.33;;;;;;;;5071309;27;52342;-62
2022/08/21 12:41:51;;;;;;;;;3.00;3.00;;;;;;;;5059515;28;52744;-63
2022/08/21 12:44:23;;;;;;;;;3.33;3.00;;;;;;;;5068299;27;50985;-63
2022/08/21 12:46:55;;;;;;;;;3.00;3.00;;;;;;;;5058777;27;51017;-63
2022/08/21 12:49:30;;;;;;;;;2.00;2.00;;;;;;;;5071585;28;51513;-63
2022/08/21 12:52:01;;;;;;;;;2.00;2.00;;;;;;;;5072675;28;51871;-62
2022/08/21 12:54:29;;;;;;;;;3.00;3.00;;;;;;;;5073277;28;51028;-63
2022/08/21 12:57:02;;;;;;;;;1.00;1.00;;;;;;;;5064772;28;50917;-62
2022/08/21 12:59:28;;;;;;;;;1.00;1.00;;;;;;;;5073396;27;51148;-62
2022/08/21 13:01:54;;;;;;;;;1.33;1.33;;;;;;;;5072113;27;51612;-63
2022/08/21 13:04:31;;;;;;;;;1.67;1.67;;;;;;;;5063034;27;50976;-62
2022/08/21 13:06:59;;;;;;;;;1.00;1.00;;;;;;;;5067979;28;51089;-63
2022/08/21 13:09:27;;;;;;;;;1.00;1.00;;;;;;;;5072606;28;51040;-62
2022/08/21 13:11:52;;;;;;;;;1.00;1.00;;;;;;;;5072612;27;51785;-63
2022/08/21 13:14:24;;;;;;;;;1.33;1.33;;;;;;;;5070208;28;51231;-63
2022/08/21 13:16:53;;;;;;;;;0.00;0.00;;;;;;;;5067852;27;51109;-63
2022/08/21 13:19:23;;;;;;;;;2.00;2.00;;;;;;;;5063509;27;50922;-63
2022/08/21 13:21:48;;;;;;;;;0.33;0.00;;;;;;;;5067772;27;53007;-63
2022/08/21 13:24:16;;;;;;;;;1.00;1.00;;;;;;;;5065715;28;51108;-63
2022/08/21 13:26:42;;;;;;;;;1.67;1.00;;;;;;;;5072255;28;51009;-62
2022/08/21 13:29:10;;;;;;;;;1.00;0.67;;;;;;;;5070329;28;50988;-62
2022/08/21 13:31:38;;;;;;;;;1.00;1.00;;;;;;;;5071105;28;51839;-63
2022/08/21 13:34:04;;;;;;;;;0.00;0.00;;;;;;;;5070710;28;51236;-61
2022/08/21 13:36:32;;;;;;;;;0.33;0.33;;;;;;;;5071854;28;50981;-63
2022/08/21 13:38:57;;;;;;;;;1.00;1.00;;;;;;;;5063273;27;51062;-61
2022/08/21 13:41:28;;;;;;;;;1.00;1.00;;;;;;;;5070534;28;51881;-60
2022/08/21 13:43:58;;;;;;;;;0.00;0.00;;;;;;;;5058078;28;50974;-63
2022/08/21 13:46:26;;;;;;;;;1.00;0.00;;;;;;;;5071994;27;51032;-60
2022/08/21 13:48:51;;;;;;;;;0.00;0.00;;;;;;;;5071614;27;51708;-63
2022/08/21 13:51:17;;;;;;;;;0.00;0.00;;;;;;;;5069987;28;53823;-62
2022/08/21 13:53:44;;;;;;;;;0.67;0.67;;;;;;;;5068933;27;50959;-61
2022/08/21 13:56:20;;;;;;;;;1.33;1.00;;;;;;;;5071323;28;50982;-61
2022/08/21 13:58:46;;;;;;;;;2.00;1.00;;;;;;;;5071469;28;51279;-62
2022/08/21 14:01:19;;;;;;;;;1.33;1.33;;;;;;;;5071180;28;51038;-64
2022/08/21 14:03:48;;;;;;;;;1.33;1.33;;;;;;;;5071221;27;51062;-63
2022/08/21 14:06:21;;;;;;;;;1.00;1.00;;;;;;;;5062895;27;51125;-62
2022/08/21 14:08:58;;;;;;;;;0.33;0.33;;;;;;;;5058485;28;51210;-66
2022/08/21 14:11:25;;;;;;;;;0.33;0.33;;;;;;;;5061332;27;52698;-63
2022/08/21 14:13:56;;;;;;;;;1.33;1.00;;;;;;;;5065736;27;51329;-65
2022/08/21 14:16:23;;;;;;;;;0.33;0.33;;;;;;;;5062398;27;51052;-62
2022/08/21 14:18:51;;;;;;;;;1.67;1.33;;;;;;;;5060239;28;51186;-62
2022/08/21 14:21:32;;;;;;;;;2.33;0.67;;;;;;;;5067277;28;51929;-62
2022/08/21 14:24:10;;;;;;;;;3.00;2.00;;;;;;;;5059325;28;51044;-64
2022/08/21 14:26:43;;;;;;;;;1.33;1.33;;;;;;;;5062138;27;51159;-63
2022/08/21 14:29:08;;;;;;;;;0.33;0.33;;;;;;;;5061816;28;51348;-63
2022/08/21 14:31:34;;;;;;;;;0.67;0.67;;;;;;;;5061608;28;51521;-61
2022/08/21 14:34:00;;;;;;;;;1.00;1.00;;;;;;;;5060887;28;51555;-64
2022/08/21 14:36:26;;;;;;;;;2.00;1.33;;;;;;;;5061578;28;51187;-64
2022/08/21 14:38:51;;;;;;;;;2.00;1.00;;;;;;;;5059767;28;51221;-63
2022/08/21 14:41:18;;;;;;;;;1.00;1.00;;;;;;;;5055399;27;52549;-63
2022/08/21 14:43:45;;;;;;;;;0.00;0.00;;;;;;;;5063546;28;51110;-65
2022/08/21 14:46:10;;;;;;;;;0.33;0.33;;;;;;;;5058659;28;51233;-62
2022/08/21 14:48:36;;;;;;;;;0.00;0.00;;;;;;;;5062223;28;50988;-62